createdAt,value
2022-12-17T00:02:21.910Z,99287.19
2022-12-17T00:05:06.847Z,99286.38
2022-12-17T00:07:51.525Z,99280.38
2022-12-17T00:10:36.733Z,99282.19
2022-12-17T00:13:39.312Z,99282.97
2022-12-17T00:16:24.911Z,99279.41
2022-12-17T00:19:09.856Z,99281.03
2022-12-17T00:21:56.495Z,99286.94
2022-12-17T00:24:41.846Z,99293.91
2022-12-17T00:27:29.344Z,99288.66
2022-12-17T00:30:14.239Z,99286.88
2022-12-17T00:32:59.252Z,99285.91
2022-12-17T00:35:44.541Z,99291.97
2022-12-17T00:38:34.793Z,99296.28
2022-12-17T00:41:19.885Z,99302.22
2022-12-17T00:44:10.326Z,99300.28
2022-12-17T00:46:55.161Z,99304.50
2022-12-17T00:49:40.835Z,99307.19
2022-12-17T00:52:25.938Z,99303.63
2022-12-17T00:55:10.863Z,99303.44
2022-12-17T00:57:55.997Z,99304.34
2022-12-17T01:00:41.920Z,99302.56
2022-12-17T01:03:30.609Z,99309.69
2022-12-17T01:06:19.530Z,99312.28
2022-12-17T01:09:04.295Z,99318.44
2022-12-17T01:11:49.635Z,99326.06
2022-12-17T01:14:34.408Z,99321.53
2022-12-17T01:17:19.144Z,99320.50
2022-12-17T01:20:03.869Z,99329.09
2022-12-17T01:22:48.660Z,99329.81
2022-12-17T01:25:33.664Z,99327.06
2022-12-17T01:28:18.411Z,99337.44
2022-12-17T01:31:03.344Z,99343.50
2022-12-17T01:33:48.400Z,99340.13
2022-12-17T01:36:33.031Z,99347.88
2022-12-17T01:39:18.289Z,99345.28
2022-12-17T01:42:03.055Z,99350.47
2022-12-17T01:45:06.279Z,99351.28
2022-12-17T01:47:58.617Z,99353.00
2022-12-17T01:50:47.362Z,99366.03
2022-12-17T01:53:36.207Z,99360.94
2022-12-17T01:56:23.002Z,99355.59
2022-12-17T01:59:08.284Z,99354.59
2022-12-17T02:01:53.820Z,99363.44
2022-12-17T02:04:40.989Z,99364.25
2022-12-17T02:07:55.082Z,99360.69
2022-12-17T02:11:21.302Z,99357.00
2022-12-17T02:14:30.609Z,99359.59
2022-12-17T02:17:20.301Z,99362.28
2022-12-17T02:20:35.118Z,99360.41
2022-12-17T02:23:28.117Z,99354.31
2022-12-17T02:26:21.035Z,99359.50
2022-12-17T02:29:09.304Z,99369.78
2022-12-17T02:31:57.703Z,99370.50
2022-12-17T02:34:42.698Z,99373.38
2022-12-17T02:37:27.716Z,99375.25
2022-12-17T02:40:12.862Z,99363.38
2022-12-17T02:42:58.346Z,99375.09
2022-12-17T02:45:43.187Z,99374.44
2022-12-17T02:48:30.435Z,99383.53
2022-12-17T02:51:17.694Z,99382.00
2022-12-17T02:54:04.425Z,99381.75
2022-12-17T02:56:49.703Z,99377.94
2022-12-17T02:59:35.013Z,99385.69
2022-12-17T03:02:19.934Z,99385.94
2022-12-17T03:05:27.557Z,99394.34
2022-12-17T03:08:09.886Z,99392.50
2022-12-17T03:10:54.695Z,99403.28
2022-12-17T03:13:45.084Z,99410.84
2022-12-17T03:16:37.283Z,99414.16
2022-12-17T03:19:22.790Z,99416.72
2022-12-17T03:22:07.847Z,99410.31
2022-12-17T03:24:52.666Z,99422.44
2022-12-17T03:27:37.532Z,99422.03
2022-12-17T03:30:22.836Z,99416.22
2022-12-17T03:33:07.658Z,99421.41
2022-12-17T03:35:52.420Z,99428.38
2022-12-17T03:38:37.256Z,99434.16
2022-12-17T03:41:22.220Z,99429.25
2022-12-17T03:44:07.147Z,99433.13
2022-12-17T03:46:51.810Z,99434.19
2022-12-17T03:49:36.497Z,99429.19
2022-12-17T03:52:22.256Z,99436.13
2022-12-17T03:55:07.188Z,99432.75
2022-12-17T03:57:52.207Z,99434.91
2022-12-17T04:00:37.500Z,99436.69
2022-12-17T04:03:22.791Z,99439.09
2022-12-17T04:06:07.711Z,99438.22
2022-12-17T04:08:52.786Z,99441.97
2022-12-17T04:11:38.116Z,99444.84
2022-12-17T04:14:39.532Z,99448.75
2022-12-17T04:17:24.540Z,99456.84
2022-12-17T04:20:09.202Z,99450.34
2022-12-17T04:22:54.034Z,99454.09
2022-12-17T04:25:38.851Z,99455.47
2022-12-17T04:28:23.725Z,99459.28
2022-12-17T04:31:19.321Z,99461.03
2022-12-17T04:34:04.053Z,99460.38
2022-12-17T04:36:48.836Z,99464.84
2022-12-17T04:39:33.700Z,99461.69
2022-12-17T04:42:18.527Z,99464.63
2022-12-17T04:45:03.397Z,99461.63
2022-12-17T04:47:48.605Z,99449.66
2022-12-17T04:50:33.569Z,99462.69
2022-12-17T04:53:22.880Z,99468.75
2022-12-17T04:56:08.637Z,99467.13
2022-12-17T04:58:53.439Z,99475.31
2022-12-17T05:01:38.788Z,99468.81
2022-12-17T05:04:23.939Z,99470.19
2022-12-17T05:07:08.746Z,99474.66
2022-12-17T05:09:54.215Z,99483.56
2022-12-17T05:12:39.110Z,99481.88
2022-12-17T05:15:24.901Z,99478.78
2022-12-17T05:18:09.807Z,99480.56
2022-12-17T05:20:54.581Z,99485.38
2022-12-17T05:23:39.376Z,99482.19
2022-12-17T05:26:39.888Z,99479.75
2022-12-17T05:29:25.122Z,99482.63
2022-12-17T05:32:10.391Z,99486.41
2022-12-17T05:34:55.639Z,99494.44
2022-12-17T05:37:42.515Z,99494.72
2022-12-17T05:40:28.299Z,99496.59
2022-12-17T05:43:21.013Z,99494.91
2022-12-17T05:46:06.594Z,99501.06
2022-12-17T05:48:52.990Z,99496.78
2022-12-17T05:51:39.241Z,99507.22
2022-12-17T05:54:25.255Z,99500.44
2022-12-17T05:57:10.705Z,99503.03
2022-12-17T05:59:55.965Z,99500.63
2022-12-17T06:02:41.314Z,99506.81
2022-12-17T06:05:26.874Z,99505.81
2022-12-17T06:08:11.737Z,99505.44
2022-12-17T06:10:57.100Z,99503.66
2022-12-17T06:13:41.957Z,99506.88
2022-12-17T06:16:26.954Z,99505.78
2022-12-17T06:19:11.693Z,99516.25
2022-12-17T06:21:56.463Z,99528.13
2022-12-17T06:24:55.323Z,99534.09
2022-12-17T06:27:43.786Z,99535.81
2022-12-17T06:30:29.651Z,99535.81
2022-12-17T06:33:28.252Z,99541.16
2022-12-17T06:36:21.598Z,99542.06
2022-12-17T06:39:07.096Z,99537.75
2022-12-17T06:41:51.966Z,99544.78
2022-12-17T06:44:37.269Z,99545.84
2022-12-17T06:47:22.465Z,99548.69
2022-12-17T06:50:07.250Z,99547.09
2022-12-17T06:52:51.970Z,99548.69
2022-12-17T06:55:36.742Z,99547.81
2022-12-17T06:58:22.023Z,99555.88
2022-12-17T07:01:06.786Z,99566.66
2022-12-17T07:03:51.911Z,99576.91
2022-12-17T07:06:36.748Z,99585.72
2022-12-17T07:09:22.101Z,99588.22
2022-12-17T07:12:06.904Z,99599.91
2022-12-17T07:14:51.912Z,99601.03
2022-12-17T07:17:37.107Z,99599.03
2022-12-17T07:20:22.333Z,99604.53
2022-12-17T07:23:07.253Z,99623.38
2022-12-17T07:25:51.981Z,99611.84
2022-12-17T07:28:37.183Z,99622.56
2022-12-17T07:31:22.495Z,99629.16
2022-12-17T07:34:07.644Z,99630.75
2022-12-17T07:36:52.429Z,99638.81
2022-12-17T07:39:37.740Z,99641.00
2022-12-17T07:42:23.126Z,99646.47
2022-12-17T07:45:07.872Z,99652.63
2022-12-17T07:47:52.964Z,99650.84
2022-12-17T07:50:38.056Z,99656.03
2022-12-17T07:53:23.839Z,99654.31
2022-12-17T07:56:10.186Z,99648.75
2022-12-17T07:58:54.952Z,99654.19
2022-12-17T08:01:40.011Z,99659.47
2022-12-17T08:04:25.113Z,99659.56
2022-12-17T08:07:14.012Z,99658.09
2022-12-17T08:09:59.701Z,99660.75
2022-12-17T08:12:58.235Z,99657.38
2022-12-17T08:15:43.103Z,99656.75
2022-12-17T08:18:27.887Z,99653.56
2022-12-17T08:21:13.252Z,99664.91
2022-12-17T08:23:58.359Z,99670.19
2022-12-17T08:26:47.887Z,99672.16
2022-12-17T08:29:33.504Z,99674.25
2022-12-17T08:32:18.244Z,99676.63
2022-12-17T08:35:02.991Z,99682.97
2022-12-17T08:37:49.301Z,99682.16
2022-12-17T08:40:34.691Z,99687.16
2022-12-17T08:43:19.537Z,99694.16
2022-12-17T08:46:09.052Z,99700.78
2022-12-17T08:48:54.570Z,99697.34
2022-12-17T08:51:41.000Z,99706.94
2022-12-17T08:54:26.165Z,99709.66
2022-12-17T08:57:11.119Z,99708.75
2022-12-17T08:59:56.408Z,99710.47
2022-12-17T09:02:41.927Z,99704.00
2022-12-17T09:05:27.668Z,99718.66
2022-12-17T09:08:25.287Z,99714.38
2022-12-17T09:11:11.134Z,99721.50
2022-12-17T09:13:56.496Z,99724.66
2022-12-17T09:16:42.491Z,99720.44
2022-12-17T09:19:29.057Z,99717.50
2022-12-17T09:22:13.970Z,99715.19
2022-12-17T09:24:59.024Z,99727.19
2022-12-17T09:27:44.391Z,99722.56
2022-12-17T09:30:29.984Z,99721.66
2022-12-17T09:33:15.046Z,99722.34
2022-12-17T09:36:00.037Z,99717.31
2022-12-17T09:38:45.105Z,99723.75
2022-12-17T09:41:46.274Z,99728.09
2022-12-17T09:45:14.777Z,99728.84
2022-12-17T09:48:16.509Z,99731.94
2022-12-17T09:51:02.892Z,99738.47
2022-12-17T09:54:03.167Z,99735.28
2022-12-17T09:56:51.166Z,99742.81
2022-12-17T09:59:40.140Z,99745.84
2022-12-17T10:02:36.819Z,99747.72
2022-12-17T10:05:25.419Z,99751.28
2022-12-17T10:08:11.862Z,99744.44
2022-12-17T10:11:03.495Z,99740.09
2022-12-17T10:13:49.150Z,99743.88
2022-12-17T10:16:42.411Z,99744.47
2022-12-17T10:19:39.389Z,99746.66
2022-12-17T10:22:29.908Z,99740.56
2022-12-17T10:25:14.880Z,99745.94
2022-12-17T10:28:00.074Z,99741.41
2022-12-17T10:30:47.377Z,99750.38
2022-12-17T10:33:38.139Z,99749.78
2022-12-17T10:36:57.237Z,99756.84
2022-12-17T10:39:42.940Z,99751.50
2022-12-17T10:42:42.674Z,99758.50
2022-12-17T10:45:54.409Z,99750.44
2022-12-17T10:48:48.848Z,99754.91
2022-12-17T10:51:51.425Z,99758.34
2022-12-17T10:54:45.428Z,99767.13
2022-12-17T10:57:49.140Z,99756.53
2022-12-17T11:00:37.061Z,99756.50
2022-12-17T11:03:22.879Z,99753.56
2022-12-17T11:06:13.525Z,99746.91
2022-12-17T11:09:16.713Z,99761.38
2022-12-17T11:12:07.199Z,99760.41
2022-12-17T11:15:02.818Z,99750.97
2022-12-17T11:17:48.143Z,99759.44
2022-12-17T11:20:44.576Z,99754.41
2022-12-17T11:23:37.028Z,99748.31
2022-12-17T11:26:32.213Z,99756.69
2022-12-17T11:29:18.020Z,99759.16
2022-12-17T11:32:34.184Z,99764.44
2022-12-17T11:35:35.540Z,99767.47
2022-12-17T11:38:43.581Z,99764.69
2022-12-17T11:41:35.195Z,99763.81
2022-12-17T11:44:32.696Z,99763.31
2022-12-17T11:47:20.463Z,99774.53
2022-12-17T11:50:27.945Z,99777.53
2022-12-17T11:53:16.085Z,99763.06
2022-12-17T11:56:42.914Z,99771.13
2022-12-17T11:59:41.633Z,99768.00
2022-12-17T12:02:46.202Z,99775.09
2022-12-17T12:05:31.011Z,99772.41
2022-12-17T12:08:23.338Z,99771.84
2022-12-17T12:11:32.731Z,99774.44
2022-12-17T12:14:30.256Z,99777.09
2022-12-17T12:17:36.645Z,99772.94
2022-12-17T12:20:57.751Z,99763.09
2022-12-17T12:23:57.805Z,99772.78
2022-12-17T12:26:50.977Z,99774.56
2022-12-17T12:30:05.643Z,99776.94
2022-12-17T12:32:57.853Z,99779.63
2022-12-17T12:35:47.108Z,99782.16
2022-12-17T12:38:45.955Z,99778.75
2022-12-17T12:41:41.444Z,99783.81
2022-12-17T12:45:04.279Z,99780.94
2022-12-17T12:48:27.103Z,99772.75
2022-12-17T12:51:34.102Z,99772.41
2022-12-17T12:54:38.541Z,99778.50
2022-12-17T12:57:23.755Z,99789.00
2022-12-17T13:00:09.065Z,99785.44
2022-12-17T13:02:54.657Z,99792.50
2022-12-17T13:05:37.627Z,99785.84
2022-12-17T13:08:09.851Z,99798.06
2022-12-17T13:10:37.616Z,99783.97
2022-12-17T13:13:20.495Z,99781.38
2022-12-17T13:15:49.984Z,99788.28
2022-12-17T13:18:21.240Z,99785.91
2022-12-17T13:21:03.243Z,99789.41
2022-12-17T13:23:31.717Z,99790.72
2022-12-17T13:26:14.859Z,99796.81
2022-12-17T13:28:43.014Z,99784.47
2022-12-17T13:31:32.707Z,99788.44
2022-12-17T13:34:27.110Z,99785.03
2022-12-17T13:37:10.764Z,99789.09
2022-12-17T13:39:59.419Z,99784.47
2022-12-17T13:42:32.359Z,99797.16
2022-12-17T13:44:59.324Z,99798.03
2022-12-17T13:47:35.211Z,99803.16
2022-12-17T13:50:33.722Z,99806.66
2022-12-17T13:53:10.387Z,99805.53
2022-12-17T13:55:38.162Z,99809.66
2022-12-17T13:58:04.604Z,99819.16
2022-12-17T14:00:32.451Z,99816.56
2022-12-17T14:03:10.880Z,99813.97
2022-12-17T14:05:42.424Z,99821.22
2022-12-17T14:08:12.795Z,99818.19
2022-12-17T14:10:47.485Z,99821.47
2022-12-17T14:13:15.828Z,99829.81
2022-12-17T14:15:52.877Z,99827.13
2022-12-17T14:18:21.514Z,99833.88
2022-12-17T14:20:51.834Z,99834.41
2022-12-17T14:23:21.144Z,99833.63
2022-12-17T14:25:48.985Z,99839.44
2022-12-17T14:28:28.742Z,99845.16
2022-12-17T14:34:02.214Z,99848.66
2022-12-17T14:36:30.187Z,99847.59
2022-12-17T14:39:02.244Z,99851.72
2022-12-17T14:41:54.639Z,99859.16
2022-12-17T14:44:28.033Z,99855.56
2022-12-17T14:47:17.581Z,99860.44
2022-12-17T14:49:55.799Z,99866.25
2022-12-17T14:52:35.893Z,99867.53
2022-12-17T14:55:55.185Z,99855.88
2022-12-17T14:58:24.526Z,99865.00
2022-12-17T15:00:56.328Z,99864.66
2022-12-17T15:03:24.827Z,99863.47
2022-12-17T15:05:57.521Z,99869.28
2022-12-17T15:08:24.547Z,99872.34
2022-12-17T15:10:51.964Z,99867.75
2022-12-17T15:13:18.508Z,99869.00
2022-12-17T15:15:45.171Z,99866.91
2022-12-17T15:18:11.640Z,99864.97
2022-12-17T15:20:38.112Z,99869.16
2022-12-17T15:23:04.689Z,99861.00
2022-12-17T15:25:31.203Z,99876.19
2022-12-17T15:28:00.294Z,99872.41
2022-12-17T15:30:28.029Z,99877.34
2022-12-17T15:32:57.841Z,99878.94
2022-12-17T15:35:24.310Z,99881.31
2022-12-17T15:37:50.719Z,99882.75
2022-12-17T15:40:17.328Z,99889.56
2022-12-17T15:43:06.169Z,99889.16
2022-12-17T15:45:33.306Z,99894.97
2022-12-17T15:47:59.797Z,99887.00
2022-12-17T15:50:26.558Z,99900.75
2022-12-17T15:52:53.016Z,99887.78
2022-12-17T15:55:19.560Z,99895.78
2022-12-17T15:57:46.299Z,99892.19
2022-12-17T16:00:13.192Z,99903.16
2022-12-17T16:02:40.177Z,99893.41
2022-12-17T16:05:07.323Z,99898.41
2022-12-17T16:07:33.877Z,99908.56
2022-12-17T16:10:04.764Z,99910.06
2022-12-17T16:12:32.610Z,99895.78
2022-12-17T16:14:59.130Z,99903.47
2022-12-17T16:17:25.614Z,99900.78
2022-12-17T16:19:55.070Z,99898.00
2022-12-17T16:22:21.864Z,99902.22
2022-12-17T16:24:48.387Z,99906.41
2022-12-17T16:27:18.013Z,99913.16
2022-12-17T16:29:45.593Z,99914.75
2022-12-17T16:32:12.116Z,99910.38
2022-12-17T16:34:38.608Z,99910.19
2022-12-17T16:37:06.782Z,99916.97
2022-12-17T16:39:33.300Z,99920.28
2022-12-17T16:41:59.842Z,99919.94
2022-12-17T16:44:26.317Z,99923.34
2022-12-17T16:46:52.882Z,99919.66
2022-12-17T16:49:22.035Z,99920.38
2022-12-17T16:51:50.350Z,99919.25
2022-12-17T16:54:19.988Z,99919.25
2022-12-17T16:56:47.011Z,99926.84
2022-12-17T16:59:14.992Z,99922.16
2022-12-17T17:01:44.793Z,99930.50
2022-12-17T17:04:13.226Z,99927.81
2022-12-17T17:06:42.812Z,99931.00
2022-12-17T17:09:09.313Z,99935.88
2022-12-17T17:11:36.035Z,99935.66
2022-12-17T17:14:02.794Z,99934.06
2022-12-17T17:16:33.086Z,99936.84
2022-12-17T17:19:00.254Z,99933.50
2022-12-17T17:21:29.058Z,99936.66
2022-12-17T17:24:01.388Z,99939.06
2022-12-17T17:26:29.922Z,99942.44
2022-12-17T17:28:56.786Z,99945.84
2022-12-17T17:31:26.677Z,99947.59
2022-12-17T17:33:57.342Z,99951.53
2022-12-17T17:36:29.067Z,99957.31
2022-12-17T17:38:58.242Z,99955.44
2022-12-17T17:41:27.515Z,99958.88
2022-12-17T17:44:02.371Z,99956.47
2022-12-17T17:46:33.396Z,99953.66
2022-12-17T17:49:02.377Z,99956.09
2022-12-17T17:52:07.974Z,99965.09
2022-12-17T17:54:20.724Z,99968.16
2022-12-17T17:56:47.163Z,99967.34
2022-12-17T17:59:19.538Z,99956.38
2022-12-17T18:01:49.503Z,99963.91
2022-12-17T18:04:19.095Z,99963.69
2022-12-17T18:07:09.132Z,99965.88
2022-12-17T18:09:32.932Z,99962.00
2022-12-17T18:12:19.359Z,99967.22
2022-12-17T18:15:11.863Z,99972.66
2022-12-17T18:17:32.270Z,99985.47
2022-12-17T18:19:58.742Z,99975.38
2022-12-17T18:22:25.252Z,99974.47
2022-12-17T18:24:51.735Z,99978.06
2022-12-17T18:27:18.215Z,99983.25
2022-12-17T18:29:44.749Z,99980.88
2022-12-17T18:32:11.228Z,99992.13
2022-12-17T18:34:37.767Z,99987.06
2022-12-17T18:37:05.250Z,99993.38
2022-12-17T18:39:31.725Z,99991.34
2022-12-17T18:42:16.694Z,99991.69
2022-12-17T18:44:43.196Z,99982.25
2022-12-17T18:47:10.613Z,99989.44
2022-12-17T18:49:37.422Z,99986.84
2022-12-17T18:52:03.984Z,99991.81
2022-12-17T18:54:31.121Z,99993.13
2022-12-17T18:57:02.050Z,100011.59
2022-12-17T18:59:30.301Z,99998.28
2022-12-17T19:01:57.423Z,100006.16
2022-12-17T19:04:25.616Z,100007.75
2022-12-17T19:06:53.683Z,100009.47
2022-12-17T19:09:26.084Z,100010.63
2022-12-17T19:11:53.607Z,100011.16
2022-12-17T19:14:22.368Z,100015.22
2022-12-17T19:16:50.427Z,100019.59
2022-12-17T19:19:18.239Z,100023.31
2022-12-17T19:21:45.063Z,100014.31
2022-12-17T19:24:14.233Z,100021.50
2022-12-17T19:26:41.043Z,100014.22
2022-12-17T19:29:10.929Z,100025.56
2022-12-17T19:31:37.545Z,100019.47
2022-12-17T19:34:06.744Z,100028.94
2022-12-17T19:36:40.906Z,100030.84
2022-12-17T19:39:13.203Z,100019.91
2022-12-17T19:41:40.203Z,100026.69
2022-12-17T19:44:10.928Z,100020.59
2022-12-17T19:46:37.649Z,100023.97
2022-12-17T19:49:05.108Z,100028.25
2022-12-17T19:51:32.851Z,100025.34
2022-12-17T19:54:06.469Z,100038.72
2022-12-17T19:56:35.610Z,100032.22
2022-12-17T19:59:07.049Z,100036.13
2022-12-17T20:01:36.255Z,100042.31
2022-12-17T20:04:03.322Z,100037.50
2022-12-17T20:06:31.703Z,100035.44
2022-12-17T20:08:59.159Z,100034.44
2022-12-17T20:11:36.125Z,100039.19
2022-12-17T20:14:21.215Z,100036.34
2022-12-17T20:16:51.923Z,100050.53
2022-12-17T20:19:21.210Z,100044.69
2022-12-17T20:21:48.841Z,100048.72
2022-12-17T20:24:19.463Z,100041.84
2022-12-17T20:26:48.852Z,100046.56
2022-12-17T20:29:15.398Z,100053.91
2022-12-17T20:31:48.037Z,100050.84
2022-12-17T20:34:17.272Z,100049.84
2022-12-17T20:36:47.987Z,100048.25
2022-12-17T20:39:14.655Z,100044.34
2022-12-17T20:41:41.865Z,100044.22
2022-12-17T20:44:11.608Z,100035.19
2022-12-17T20:46:38.412Z,100046.53
2022-12-17T20:49:05.886Z,100040.59
2022-12-17T20:51:33.328Z,100050.03
2022-12-17T20:54:05.697Z,100047.56
2022-12-17T20:56:34.198Z,100056.56
2022-12-17T20:59:03.733Z,100050.03
2022-12-17T21:01:33.291Z,100062.28
2022-12-17T21:04:00.875Z,100059.53
2022-12-17T21:06:35.792Z,100058.34
2022-12-17T21:09:02.772Z,100060.63
2022-12-17T21:11:31.191Z,100065.22
2022-12-17T21:13:58.656Z,100069.50
2022-12-17T21:16:28.052Z,100073.28
2022-12-17T21:18:56.292Z,100075.97
2022-12-17T21:21:25.993Z,100082.28
2022-12-17T21:23:52.913Z,100084.38
2022-12-17T21:26:21.408Z,100096.28
2022-12-17T21:28:50.036Z,100090.41
2022-12-17T21:31:19.752Z,100093.56
2022-12-17T21:33:50.115Z,100092.88
2022-12-17T21:36:19.749Z,100100.84
2022-12-17T21:38:51.006Z,100085.72
2022-12-17T21:41:20.192Z,100090.59
2022-12-17T21:43:46.738Z,100091.03
2022-12-17T21:46:14.049Z,100097.09
2022-12-17T21:48:42.610Z,100094.00
2022-12-17T21:51:11.526Z,100090.19
2022-12-17T21:53:42.816Z,100093.38
2022-12-17T21:56:15.878Z,100098.97
2022-12-17T21:58:46.949Z,100098.66
2022-12-17T22:01:22.100Z,100101.19
2022-12-17T22:03:54.128Z,100103.56
2022-12-17T22:06:34.918Z,100096.53
2022-12-17T22:09:15.186Z,100099.56
2022-12-17T22:11:48.309Z,100100.75
2022-12-17T22:14:20.641Z,100101.03
2022-12-17T22:16:49.482Z,100103.75
2022-12-17T22:19:22.316Z,100108.53
2022-12-17T22:21:50.712Z,100114.16
2022-12-17T22:24:19.366Z,100119.28
2022-12-17T22:26:46.812Z,100127.25
2022-12-17T22:29:33.830Z,100125.63
2022-12-17T22:32:18.970Z,100114.78
2022-12-17T22:36:02.759Z,100123.44
2022-12-17T22:41:40.076Z,100120.22
2022-12-17T22:44:35.118Z,100125.75
2022-12-17T22:44:43.212Z,100132.03
2022-12-17T22:46:17.264Z,100135.28
2022-12-17T22:48:44.336Z,100133.38
2022-12-17T22:51:15.452Z,100124.56
2022-12-17T22:53:51.954Z,100127.13
2022-12-17T22:56:30.926Z,100122.34
2022-12-17T22:59:15.685Z,100130.94
2022-12-17T23:01:42.129Z,100129.13
2022-12-17T23:04:12.865Z,100142.63
2022-12-17T23:06:45.051Z,100135.06
2022-12-17T23:09:17.903Z,100140.78
2022-12-17T23:11:44.353Z,100136.69
2022-12-17T23:14:10.837Z,100143.91
2022-12-17T23:16:38.833Z,100141.78
2022-12-17T23:19:06.222Z,100132.25
2022-12-17T23:21:33.065Z,100133.56
2022-12-17T23:24:04.211Z,100129.31
2022-12-17T23:26:39.540Z,100126.63
2022-12-17T23:29:08.719Z,100127.63
2022-12-17T23:31:38.053Z,100125.44
2022-12-17T23:34:05.032Z,100127.59
2022-12-17T23:36:31.759Z,100117.69
2022-12-17T23:38:59.035Z,100119.19
2022-12-17T23:41:28.058Z,100120.88
2022-12-17T23:43:55.358Z,100119.19
2022-12-17T23:46:23.797Z,100118.84
2022-12-17T23:48:52.561Z,100127.59
2022-12-17T23:51:20.848Z,100125.13
2022-12-17T23:53:53.638Z,100122.56
2022-12-17T23:56:26.123Z,100121.66
2022-12-17T23:59:01.290Z,100120.53
